Solikamsk, Russia
Current Conditions -  °F | °C
As of 12:00 AM on Saturday 22 Nov 2014 (Local Time) from USPP Reporting Station
Overcast Overcast  
Wind Chill: 21°   Ceiling: 1000
Heat Index: 30°   Visibility: 6mi
Dew Point: 28°   Wind: 11mph
Humidity: 93%   Direction: 240°WSW
Pressure: 30.27"   Gusts: NA
Location:  59.64°N, 56.75°E
Report Text: USPP 211900Z 24005MPS 9999 OVC010 M01/M02 Q1025 21290150 NOSIGRMK QFE758/1011
Loading
Personal Weather Stations






























Interactive Weather Map New forecast layout! Learn more

10-Day Weather Forecast

Advertisements
Track Severe Weather on mobile